sensor_id;sensor_type;location;lat;lon;timestamp;P1;durP1;ratioP1;P2;durP2;ratioP2
79562;SDS011;69026;50.980;11.314;2023-05-10T00:00:08;2.47;;;1.38;;
79562;SDS011;69026;50.980;11.314;2023-05-10T00:02:38;1.50;;;1.20;;
79562;SDS011;69026;50.980;11.314;2023-05-10T00:05:04;1.92;;;1.35;;
79562;SDS011;69026;50.980;11.314;2023-05-10T00:07:30;1.55;;;1.45;;
79562;SDS011;69026;50.980;11.314;2023-05-10T00:09:56;2.78;;;1.35;;
79562;SDS011;69026;50.980;11.314;2023-05-10T00:12:22;2.08;;;1.42;;
79562;SDS011;69026;50.980;11.314;2023-05-10T00:14:48;1.88;;;1.77;;
79562;SDS011;69026;50.980;11.314;2023-05-10T00:17:14;1.67;;;1.20;;
79562;SDS011;69026;50.980;11.314;2023-05-10T00:19:40;1.83;;;1.27;;
79562;SDS011;69026;50.980;11.314;2023-05-10T00:22:05;2.97;;;1.40;;
79562;SDS011;69026;50.980;11.314;2023-05-10T00:24:31;2.33;;;1.30;;
79562;SDS011;69026;50.980;11.314;2023-05-10T00:26:57;2.28;;;1.20;;
79562;SDS011;69026;50.980;11.314;2023-05-10T00:29:23;1.35;;;1.20;;
79562;SDS011;69026;50.980;11.314;2023-05-10T00:31:49;1.27;;;1.17;;
79562;SDS011;69026;50.980;11.314;2023-05-10T00:34:15;1.73;;;1.30;;
79562;SDS011;69026;50.980;11.314;2023-05-10T00:36:41;1.95;;;1.20;;
79562;SDS011;69026;50.980;11.314;2023-05-10T00:39:06;2.80;;;1.40;;
79562;SDS011;69026;50.980;11.314;2023-05-10T00:41:33;1.90;;;1.30;;
79562;SDS011;69026;50.980;11.314;2023-05-10T00:44:00;2.38;;;1.60;;
79562;SDS011;69026;50.980;11.314;2023-05-10T00:46:27;2.30;;;1.40;;
79562;SDS011;69026;50.980;11.314;2023-05-10T00:48:54;1.48;;;1.38;;
79562;SDS011;69026;50.980;11.314;2023-05-10T00:51:19;2.08;;;1.10;;
79562;SDS011;69026;50.980;11.314;2023-05-10T00:53:46;2.35;;;1.15;;
79562;SDS011;69026;50.980;11.314;2023-05-10T00:56:12;1.85;;;1.20;;
79562;SDS011;69026;50.980;11.314;2023-05-10T00:58:39;2.30;;;1.10;;
79562;SDS011;69026;50.980;11.314;2023-05-10T01:01:05;2.00;;;1.70;;
79562;SDS011;69026;50.980;11.314;2023-05-10T01:03:32;2.10;;;1.27;;
79562;SDS011;69026;50.980;11.314;2023-05-10T01:05:58;2.78;;;1.50;;
79562;SDS011;69026;50.980;11.314;2023-05-10T01:08:24;2.42;;;1.40;;
79562;SDS011;69026;50.980;11.314;2023-05-10T01:10:52;1.73;;;1.40;;
79562;SDS011;69026;50.980;11.314;2023-05-10T01:15:56;2.80;;;1.42;;
79562;SDS011;69026;50.980;11.314;2023-05-10T01:18:22;1.95;;;1.00;;
79562;SDS011;69026;50.980;11.314;2023-05-10T01:20:51;1.77;;;1.38;;
79562;SDS011;69026;50.980;11.314;2023-05-10T01:23:40;1.27;;;0.90;;
79562;SDS011;69026;50.980;11.314;2023-05-10T01:32:28;2.00;;;1.02;;
79562;SDS011;69026;50.980;11.314;2023-05-10T01:35:19;1.55;;;1.00;;
79562;SDS011;69026;50.980;11.314;2023-05-10T01:40:30;1.85;;;1.17;;
79562;SDS011;69026;50.980;11.314;2023-05-10T01:43:04;1.67;;;1.10;;
79562;SDS011;69026;50.980;11.314;2023-05-10T01:45:41;1.55;;;1.20;;
79562;SDS011;69026;50.980;11.314;2023-05-10T01:48:17;2.13;;;1.17;;
79562;SDS011;69026;50.980;11.314;2023-05-10T01:50:45;1.40;;;1.20;;
79562;SDS011;69026;50.980;11.314;2023-05-10T01:53:12;3.10;;;1.00;;
79562;SDS011;69026;50.980;11.314;2023-05-10T01:55:42;2.03;;;1.33;;
79562;SDS011;69026;50.980;11.314;2023-05-10T01:58:13;1.77;;;1.10;;
79562;SDS011;69026;50.980;11.314;2023-05-10T02:00:43;1.50;;;1.35;;
79562;SDS011;69026;50.980;11.314;2023-05-10T02:03:11;1.67;;;1.10;;
79562;SDS011;69026;50.980;11.314;2023-05-10T02:05:38;1.75;;;1.40;;
79562;SDS011;69026;50.980;11.314;2023-05-10T02:08:07;1.88;;;1.33;;
79562;SDS011;69026;50.980;11.314;2023-05-10T02:10:36;1.38;;;1.05;;
79562;SDS011;69026;50.980;11.314;2023-05-10T02:13:02;1.75;;;1.00;;
79562;SDS011;69026;50.980;11.314;2023-05-10T02:15:31;1.60;;;1.30;;
79562;SDS011;69026;50.980;11.314;2023-05-10T02:17:58;2.20;;;1.20;;
79562;SDS011;69026;50.980;11.314;2023-05-10T02:20:25;1.67;;;1.20;;
79562;SDS011;69026;50.980;11.314;2023-05-10T02:22:53;1.67;;;1.17;;
79562;SDS011;69026;50.980;11.314;2023-05-10T02:25:21;1.30;;;1.13;;
79562;SDS011;69026;50.980;11.314;2023-05-10T02:27:48;1.50;;;1.17;;
79562;SDS011;69026;50.980;11.314;2023-05-10T02:30:16;0.82;;;0.77;;
79562;SDS011;69026;50.980;11.314;2023-05-10T02:32:44;1.52;;;1.00;;
79562;SDS011;69026;50.980;11.314;2023-05-10T02:35:10;1.70;;;1.20;;
79562;SDS011;69026;50.980;11.314;2023-05-10T02:37:37;1.48;;;1.17;;
79562;SDS011;69026;50.980;11.314;2023-05-10T02:40:05;1.42;;;1.08;;
79562;SDS011;69026;50.980;11.314;2023-05-10T02:42:35;1.85;;;1.35;;
79562;SDS011;69026;50.980;11.314;2023-05-10T02:45:07;1.73;;;1.10;;
79562;SDS011;69026;50.980;11.314;2023-05-10T02:47:36;1.73;;;1.25;;
79562;SDS011;69026;50.980;11.314;2023-05-10T02:50:03;1.98;;;1.10;;
79562;SDS011;69026;50.980;11.314;2023-05-10T02:52:35;1.88;;;1.10;;
79562;SDS011;69026;50.980;11.314;2023-05-10T02:55:05;1.40;;;1.10;;
79562;SDS011;69026;50.980;11.314;2023-05-10T02:57:33;2.28;;;1.25;;
79562;SDS011;69026;50.980;11.314;2023-05-10T03:00:00;1.27;;;1.10;;
79562;SDS011;69026;50.980;11.314;2023-05-10T03:02:27;2.35;;;1.33;;
79562;SDS011;69026;50.980;11.314;2023-05-10T03:04:56;1.38;;;1.27;;
79562;SDS011;69026;50.980;11.314;2023-05-10T03:07:22;1.88;;;1.30;;
79562;SDS011;69026;50.980;11.314;2023-05-10T03:09:48;1.00;;;0.90;;
79562;SDS011;69026;50.980;11.314;2023-05-10T03:20:38;1.27;;;0.98;;
79562;SDS011;69026;50.980;11.314;2023-05-10T03:26:02;1.50;;;1.00;;
79562;SDS011;69026;50.980;11.314;2023-05-10T03:28:30;1.52;;;1.08;;
79562;SDS011;69026;50.980;11.314;2023-05-10T03:30:59;2.78;;;1.27;;
79562;SDS011;69026;50.980;11.314;2023-05-10T03:33:25;1.60;;;1.02;;
79562;SDS011;69026;50.980;11.314;2023-05-10T03:35:51;2.17;;;1.25;;
79562;SDS011;69026;50.980;11.314;2023-05-10T03:38:17;2.80;;;1.00;;
79562;SDS011;69026;50.980;11.314;2023-05-10T03:40:42;1.48;;;1.20;;
79562;SDS011;69026;50.980;11.314;2023-05-10T03:43:08;1.90;;;0.90;;
79562;SDS011;69026;50.980;11.314;2023-05-10T03:45:34;1.55;;;1.15;;
79562;SDS011;69026;50.980;11.314;2023-05-10T03:48:00;2.00;;;1.00;;
79562;SDS011;69026;50.980;11.314;2023-05-10T03:50:26;1.30;;;0.90;;
79562;SDS011;69026;50.980;11.314;2023-05-10T03:52:52;1.10;;;0.90;;
79562;SDS011;69026;50.980;11.314;2023-05-10T03:55:18;1.17;;;1.00;;
79562;SDS011;69026;50.980;11.314;2023-05-10T03:57:44;1.30;;;1.00;;
79562;SDS011;69026;50.980;11.314;2023-05-10T04:00:10;1.88;;;1.17;;
79562;SDS011;69026;50.980;11.314;2023-05-10T04:02:42;1.52;;;1.10;;
79562;SDS011;69026;50.980;11.314;2023-05-10T04:05:12;1.73;;;1.30;;
79562;SDS011;69026;50.980;11.314;2023-05-10T04:07:37;1.27;;;1.13;;
79562;SDS011;69026;50.980;11.314;2023-05-10T04:10:03;2.08;;;1.35;;
79562;SDS011;69026;50.980;11.314;2023-05-10T04:12:30;1.70;;;1.20;;
79562;SDS011;69026;50.980;11.314;2023-05-10T04:14:55;1.63;;;1.20;;
79562;SDS011;69026;50.980;11.314;2023-05-10T04:17:21;2.00;;;1.35;;
79562;SDS011;69026;50.980;11.314;2023-05-10T04:19:47;1.10;;;1.00;;
79562;SDS011;69026;50.980;11.314;2023-05-10T04:22:12;1.05;;;0.95;;
79562;SDS011;69026;50.980;11.314;2023-05-10T04:24:39;1.63;;;1.20;;
79562;SDS011;69026;50.980;11.314;2023-05-10T04:27:05;1.63;;;1.00;;
79562;SDS011;69026;50.980;11.314;2023-05-10T04:29:30;1.50;;;1.00;;
79562;SDS011;69026;50.980;11.314;2023-05-10T04:31:56;1.58;;;1.10;;
79562;SDS011;69026;50.980;11.314;2023-05-10T04:34:22;1.77;;;1.17;;
79562;SDS011;69026;50.980;11.314;2023-05-10T04:36:48;1.45;;;0.90;;
79562;SDS011;69026;50.980;11.314;2023-05-10T04:39:13;1.45;;;1.05;;
79562;SDS011;69026;50.980;11.314;2023-05-10T04:41:39;1.58;;;1.10;;
79562;SDS011;69026;50.980;11.314;2023-05-10T04:44:05;1.48;;;1.10;;
79562;SDS011;69026;50.980;11.314;2023-05-10T04:46:31;1.92;;;1.00;;
79562;SDS011;69026;50.980;11.314;2023-05-10T04:48:57;1.40;;;0.93;;
79562;SDS011;69026;50.980;11.314;2023-05-10T04:51:23;1.52;;;1.13;;
79562;SDS011;69026;50.980;11.314;2023-05-10T04:53:49;1.23;;;0.98;;
79562;SDS011;69026;50.980;11.314;2023-05-10T04:56:15;1.58;;;0.90;;
79562;SDS011;69026;50.980;11.314;2023-05-10T04:58:42;1.00;;;0.88;;
79562;SDS011;69026;50.980;11.314;2023-05-10T05:01:08;1.75;;;1.17;;
79562;SDS011;69026;50.980;11.314;2023-05-10T05:03:34;1.60;;;1.02;;
79562;SDS011;69026;50.980;11.314;2023-05-10T05:06:00;2.40;;;1.00;;
79562;SDS011;69026;50.980;11.314;2023-05-10T05:08:26;1.50;;;1.20;;
79562;SDS011;69026;50.980;11.314;2023-05-10T05:10:52;1.88;;;1.30;;
79562;SDS011;69026;50.980;11.314;2023-05-10T05:13:18;1.35;;;1.00;;
79562;SDS011;69026;50.980;11.314;2023-05-10T05:15:44;1.67;;;1.23;;
79562;SDS011;69026;50.980;11.314;2023-05-10T05:18:10;1.17;;;0.88;;
79562;SDS011;69026;50.980;11.314;2023-05-10T05:20:35;1.10;;;0.93;;
79562;SDS011;69026;50.980;11.314;2023-05-10T05:23:01;1.00;;;0.90;;
79562;SDS011;69026;50.980;11.314;2023-05-10T05:25:27;1.80;;;0.77;;
79562;SDS011;69026;50.980;11.314;2023-05-10T05:27:53;1.38;;;1.05;;
79562;SDS011;69026;50.980;11.314;2023-05-10T05:30:19;1.17;;;0.90;;
79562;SDS011;69026;50.980;11.314;2023-05-10T05:32:45;1.33;;;1.10;;
79562;SDS011;69026;50.980;11.314;2023-05-10T05:35:12;1.67;;;1.13;;
79562;SDS011;69026;50.980;11.314;2023-05-10T05:37:38;1.50;;;1.08;;
79562;SDS011;69026;50.980;11.314;2023-05-10T05:40:04;1.10;;;1.00;;
79562;SDS011;69026;50.980;11.314;2023-05-10T05:42:31;1.70;;;1.20;;
79562;SDS011;69026;50.980;11.314;2023-05-10T05:44:57;1.73;;;1.20;;
79562;SDS011;69026;50.980;11.314;2023-05-10T05:47:23;1.63;;;1.15;;
79562;SDS011;69026;50.980;11.314;2023-05-10T05:49:49;1.63;;;1.10;;
79562;SDS011;69026;50.980;11.314;2023-05-10T05:52:15;1.38;;;1.02;;
79562;SDS011;69026;50.980;11.314;2023-05-10T05:54:41;1.20;;;0.95;;
79562;SDS011;69026;50.980;11.314;2023-05-10T05:57:06;1.30;;;0.90;;
79562;SDS011;69026;50.980;11.314;2023-05-10T05:59:32;1.35;;;1.05;;
79562;SDS011;69026;50.980;11.314;2023-05-10T06:01:58;1.02;;;0.93;;
79562;SDS011;69026;50.980;11.314;2023-05-10T06:04:24;1.15;;;0.90;;
79562;SDS011;69026;50.980;11.314;2023-05-10T06:06:50;1.02;;;0.80;;
79562;SDS011;69026;50.980;11.314;2023-05-10T06:09:15;1.40;;;0.93;;
79562;SDS011;69026;50.980;11.314;2023-05-10T06:11:41;1.45;;;1.00;;
79562;SDS011;69026;50.980;11.314;2023-05-10T06:14:07;1.20;;;0.95;;
79562;SDS011;69026;50.980;11.314;2023-05-10T06:16:33;1.55;;;1.02;;
79562;SDS011;69026;50.980;11.314;2023-05-10T06:18:59;1.23;;;1.10;;
79562;SDS011;69026;50.980;11.314;2023-05-10T06:21:25;1.23;;;0.90;;
79562;SDS011;69026;50.980;11.314;2023-05-10T06:23:51;1.20;;;1.10;;
79562;SDS011;69026;50.980;11.314;2023-05-10T06:26:17;1.38;;;0.82;;
79562;SDS011;69026;50.980;11.314;2023-05-10T06:28:43;1.73;;;0.90;;
79562;SDS011;69026;50.980;11.314;2023-05-10T06:31:08;1.10;;;0.90;;
79562;SDS011;69026;50.980;11.314;2023-05-10T06:33:36;1.58;;;0.90;;
79562;SDS011;69026;50.980;11.314;2023-05-10T06:36:02;1.80;;;1.13;;
79562;SDS011;69026;50.980;11.314;2023-05-10T06:38:30;1.65;;;1.05;;
79562;SDS011;69026;50.980;11.314;2023-05-10T06:40:56;1.52;;;1.15;;
79562;SDS011;69026;50.980;11.314;2023-05-10T06:43:22;1.83;;;1.02;;
79562;SDS011;69026;50.980;11.314;2023-05-10T06:45:49;1.40;;;1.00;;
79562;SDS011;69026;50.980;11.314;2023-05-10T06:48:15;1.48;;;1.33;;
79562;SDS011;69026;50.980;11.314;2023-05-10T06:50:41;2.05;;;1.50;;
79562;SDS011;69026;50.980;11.314;2023-05-10T06:53:07;2.95;;;2.45;;
79562;SDS011;69026;50.980;11.314;2023-05-10T06:55:32;2.92;;;1.88;;
79562;SDS011;69026;50.980;11.314;2023-05-10T06:57:58;3.05;;;1.80;;
79562;SDS011;69026;50.980;11.314;2023-05-10T07:00:24;3.25;;;1.77;;
79562;SDS011;69026;50.980;11.314;2023-05-10T07:02:50;2.63;;;1.67;;
79562;SDS011;69026;50.980;11.314;2023-05-10T07:05:16;2.70;;;2.13;;
79562;SDS011;69026;50.980;11.314;2023-05-10T07:07:42;2.90;;;2.17;;
79562;SDS011;69026;50.980;11.314;2023-05-10T07:10:08;3.53;;;2.08;;
79562;SDS011;69026;50.980;11.314;2023-05-10T07:12:34;2.95;;;2.40;;
79562;SDS011;69026;50.980;11.314;2023-05-10T07:15:00;3.30;;;2.15;;
79562;SDS011;69026;50.980;11.314;2023-05-10T07:17:26;2.10;;;1.85;;
79562;SDS011;69026;50.980;11.314;2023-05-10T07:19:52;3.60;;;2.50;;
79562;SDS011;69026;50.980;11.314;2023-05-10T07:22:18;3.53;;;2.20;;
79562;SDS011;69026;50.980;11.314;2023-05-10T07:24:43;3.80;;;2.53;;
79562;SDS011;69026;50.980;11.314;2023-05-10T07:27:09;3.33;;;2.28;;
79562;SDS011;69026;50.980;11.314;2023-05-10T07:29:35;2.95;;;2.33;;
79562;SDS011;69026;50.980;11.314;2023-05-10T07:32:01;2.45;;;2.20;;
79562;SDS011;69026;50.980;11.314;2023-05-10T07:34:27;3.00;;;2.28;;
79562;SDS011;69026;50.980;11.314;2023-05-10T07:36:53;2.95;;;2.60;;
79562;SDS011;69026;50.980;11.314;2023-05-10T07:39:19;4.25;;;2.67;;
79562;SDS011;69026;50.980;11.314;2023-05-10T07:41:48;3.47;;;2.30;;
79562;SDS011;69026;50.980;11.314;2023-05-10T07:44:14;3.47;;;2.42;;
79562;SDS011;69026;50.980;11.314;2023-05-10T07:46:40;3.95;;;2.78;;
79562;SDS011;69026;50.980;11.314;2023-05-10T07:49:06;3.17;;;2.53;;
79562;SDS011;69026;50.980;11.314;2023-05-10T07:51:31;4.03;;;2.45;;
79562;SDS011;69026;50.980;11.314;2023-05-10T07:53:57;4.20;;;2.40;;
79562;SDS011;69026;50.980;11.314;2023-05-10T07:56:24;4.85;;;2.83;;
79562;SDS011;69026;50.980;11.314;2023-05-10T07:58:53;5.45;;;2.53;;
79562;SDS011;69026;50.980;11.314;2023-05-10T08:01:19;2.30;;;2.10;;
79562;SDS011;69026;50.980;11.314;2023-05-10T08:03:45;3.72;;;2.67;;
79562;SDS011;69026;50.980;11.314;2023-05-10T08:06:11;6.00;;;2.72;;
79562;SDS011;69026;50.980;11.314;2023-05-10T08:08:37;3.40;;;2.50;;
79562;SDS011;69026;50.980;11.314;2023-05-10T08:11:03;3.90;;;3.03;;
79562;SDS011;69026;50.980;11.314;2023-05-10T08:13:29;4.55;;;2.53;;
79562;SDS011;69026;50.980;11.314;2023-05-10T08:15:56;11.30;;;3.53;;
79562;SDS011;69026;50.980;11.314;2023-05-10T08:18:22;8.00;;;4.15;;
79562;SDS011;69026;50.980;11.314;2023-05-10T08:20:48;11.50;;;3.60;;
79562;SDS011;69026;50.980;11.314;2023-05-10T08:23:14;6.22;;;3.58;;
79562;SDS011;69026;50.980;11.314;2023-05-10T08:25:40;6.78;;;3.22;;
79562;SDS011;69026;50.980;11.314;2023-05-10T08:28:05;4.65;;;2.92;;
79562;SDS011;69026;50.980;11.314;2023-05-10T08:30:31;3.75;;;2.80;;
79562;SDS011;69026;50.980;11.314;2023-05-10T08:32:57;3.38;;;2.40;;
79562;SDS011;69026;50.980;11.314;2023-05-10T08:35:23;4.30;;;2.72;;
79562;SDS011;69026;50.980;11.314;2023-05-10T08:37:50;3.53;;;2.53;;
79562;SDS011;69026;50.980;11.314;2023-05-10T08:40:16;5.07;;;2.58;;
79562;SDS011;69026;50.980;11.314;2023-05-10T08:42:51;3.50;;;2.10;;
79562;SDS011;69026;50.980;11.314;2023-05-10T08:45:24;4.45;;;2.33;;
79562;SDS011;69026;50.980;11.314;2023-05-10T08:47:50;2.67;;;2.28;;
79562;SDS011;69026;50.980;11.314;2023-05-10T08:50:18;3.72;;;2.13;;
79562;SDS011;69026;50.980;11.314;2023-05-10T08:52:47;2.67;;;2.35;;
79562;SDS011;69026;50.980;11.314;2023-05-10T08:57:41;7.93;;;2.15;;
79562;SDS011;69026;50.980;11.314;2023-05-10T09:00:07;3.50;;;2.15;;
79562;SDS011;69026;50.980;11.314;2023-05-10T09:02:35;2.78;;;2.17;;
79562;SDS011;69026;50.980;11.314;2023-05-10T09:05:02;3.05;;;2.40;;
79562;SDS011;69026;50.980;11.314;2023-05-10T09:07:30;3.67;;;2.08;;
79562;SDS011;69026;50.980;11.314;2023-05-10T09:09:56;4.45;;;2.30;;
79562;SDS011;69026;50.980;11.314;2023-05-10T09:12:22;3.38;;;2.55;;
79562;SDS011;69026;50.980;11.314;2023-05-10T09:14:48;5.28;;;2.33;;
79562;SDS011;69026;50.980;11.314;2023-05-10T09:17:16;4.10;;;2.40;;
79562;SDS011;69026;50.980;11.314;2023-05-10T09:19:42;2.50;;;2.13;;
79562;SDS011;69026;50.980;11.314;2023-05-10T09:22:07;8.77;;;2.22;;
79562;SDS011;69026;50.980;11.314;2023-05-10T09:24:34;2.72;;;1.83;;
79562;SDS011;69026;50.980;11.314;2023-05-10T09:27:02;3.42;;;1.75;;
79562;SDS011;69026;50.980;11.314;2023-05-10T09:29:38;1.90;;;1.60;;
79562;SDS011;69026;50.980;11.314;2023-05-10T09:32:08;3.10;;;1.50;;
79562;SDS011;69026;50.980;11.314;2023-05-10T09:34:34;5.38;;;1.40;;
79562;SDS011;69026;50.980;11.314;2023-05-10T09:37:05;4.65;;;1.20;;
79562;SDS011;69026;50.980;11.314;2023-05-10T09:39:31;1.77;;;0.70;;
79562;SDS011;69026;50.980;11.314;2023-05-10T09:41:58;5.22;;;0.90;;
79562;SDS011;69026;50.980;11.314;2023-05-10T09:44:29;4.60;;;1.00;;
79562;SDS011;69026;50.980;11.314;2023-05-10T09:46:55;5.20;;;0.70;;
79562;SDS011;69026;50.980;11.314;2023-05-10T09:49:21;2.20;;;0.63;;
79562;SDS011;69026;50.980;11.314;2023-05-10T09:51:57;6.68;;;0.50;;
79562;SDS011;69026;50.980;11.314;2023-05-10T09:54:25;1.25;;;0.25;;
79562;SDS011;69026;50.980;11.314;2023-05-10T09:56:51;0.50;;;0.32;;
79562;SDS011;69026;50.980;11.314;2023-05-10T09:59:17;1.55;;;0.30;;
79562;SDS011;69026;50.980;11.314;2023-05-10T10:01:55;1.35;;;0.30;;
79562;SDS011;69026;50.980;11.314;2023-05-10T10:04:22;1.05;;;0.30;;
79562;SDS011;69026;50.980;11.314;2023-05-10T10:06:57;0.47;;;0.32;;
79562;SDS011;69026;50.980;11.314;2023-05-10T10:09:32;0.50;;;0.40;;
79562;SDS011;69026;50.980;11.314;2023-05-10T10:12:00;0.55;;;0.30;;
79562;SDS011;69026;50.980;11.314;2023-05-10T10:14:27;1.58;;;0.40;;
79562;SDS011;69026;50.980;11.314;2023-05-10T10:16:54;11.45;;;1.38;;
79562;SDS011;69026;50.980;11.314;2023-05-10T10:19:21;2.83;;;0.45;;
79562;SDS011;69026;50.980;11.314;2023-05-10T10:21:48;4.00;;;0.68;;
79562;SDS011;69026;50.980;11.314;2023-05-10T10:24:15;2.25;;;0.57;;
79562;SDS011;69026;50.980;11.314;2023-05-10T10:26:42;0.82;;;0.60;;
79562;SDS011;69026;50.980;11.314;2023-05-10T10:29:43;1.13;;;0.35;;
79562;SDS011;69026;50.980;11.314;2023-05-10T10:32:06;1.38;;;0.20;;
79562;SDS011;69026;50.980;11.314;2023-05-10T10:34:35;1.13;;;0.30;;
79562;SDS011;69026;50.980;11.314;2023-05-10T10:37:04;0.95;;;0.40;;
79562;SDS011;69026;50.980;11.314;2023-05-10T10:39:31;2.05;;;0.70;;
79562;SDS011;69026;50.980;11.314;2023-05-10T10:41:58;1.00;;;0.30;;
